TAF EGBB
AMD EGBB 270830Z 2708/2806 34017G27KT 9999 SCT030 TEMPO 2708/2711 32025G40KT 0600 +SHSN BKN001 PROB40 TEMPO 2711/2714 32025G40KT 3000 SHRASN BKN008 BECMG 2722/2801 33012KT=
METAR EGBB
WC EGBB
WS EGBB
WV EGBB